Terminal Aerodrome Forecast
Issued by NWS

Home | Current Version | Previous Version | Text Only | Print | Product List | Glossary On
Versions: 1 2 3 4 5 6 7 8 9 10 11 12
143
FTUS46 KMTR 142326
TAFMRY
TAF
KMRY 142326Z 1500/1524 29005KT P6SM SKC
     FM150300 09004KT P6SM SKC
     FM151700 VRB03KT P6SM SKC
     FM152000 29005KT P6SM SKC=

USA.gov is the U.S. government's official web portal to all federal, state and local government web resources and services.